sensor_id;sensor_type;location;lat;lon;timestamp;P1;durP1;ratioP1;P2;durP2;ratioP2
934;SDS011;454;53.254;10.400;2022-11-15T05:02:19;5.72;;;5.22;;
934;SDS011;454;53.254;10.400;2022-11-15T05:04:46;10.02;;;6.40;;
934;SDS011;454;53.254;10.400;2022-11-15T05:07:11;8.97;;;4.90;;
934;SDS011;454;53.254;10.400;2022-11-15T05:09:38;10.05;;;6.63;;
934;SDS011;454;53.254;10.400;2022-11-15T05:12:05;6.78;;;5.72;;
934;SDS011;454;53.254;10.400;2022-11-15T05:14:32;15.68;;;7.88;;
934;SDS011;454;53.254;10.400;2022-11-15T05:16:58;9.95;;;6.80;;
934;SDS011;454;53.254;10.400;2022-11-15T05:19:27;15.40;;;5.35;;
934;SDS011;454;53.254;10.400;2022-11-15T05:21:54;6.47;;;5.82;;
934;SDS011;454;53.254;10.400;2022-11-15T05:24:20;9.18;;;5.10;;
934;SDS011;454;53.254;10.400;2022-11-15T05:26:47;6.72;;;5.60;;
934;SDS011;454;53.254;10.400;2022-11-15T05:29:14;7.50;;;5.45;;
934;SDS011;454;53.254;10.400;2022-11-15T05:31:40;8.90;;;5.30;;
934;SDS011;454;53.254;10.400;2022-11-15T05:34:08;5.22;;;4.07;;
934;SDS011;454;53.254;10.400;2022-11-15T05:36:37;7.03;;;5.82;;
934;SDS011;454;53.254;10.400;2022-11-15T05:39:05;14.13;;;7.40;;
934;SDS011;454;53.254;10.400;2022-11-15T05:41:34;5.18;;;4.35;;
934;SDS011;454;53.254;10.400;2022-11-15T05:44:03;7.82;;;7.03;;
934;SDS011;454;53.254;10.400;2022-11-15T05:46:33;17.00;;;8.20;;
934;SDS011;454;53.254;10.400;2022-11-15T05:49:01;14.10;;;7.97;;
934;SDS011;454;53.254;10.400;2022-11-15T05:51:28;9.32;;;5.40;;
934;SDS011;454;53.254;10.400;2022-11-15T05:53:57;7.07;;;6.00;;
934;SDS011;454;53.254;10.400;2022-11-15T05:56:26;9.05;;;7.75;;
934;SDS011;454;53.254;10.400;2022-11-15T05:58:53;11.18;;;8.48;;
934;SDS011;454;53.254;10.400;2022-11-15T06:01:22;46.58;;;19.92;;
934;SDS011;454;53.254;10.400;2022-11-15T06:03:51;26.45;;;15.23;;
934;SDS011;454;53.254;10.400;2022-11-15T06:06:17;11.88;;;10.10;;
934;SDS011;454;53.254;10.400;2022-11-15T06:08:44;9.52;;;7.03;;
934;SDS011;454;53.254;10.400;2022-11-15T06:11:14;8.90;;;6.18;;
934;SDS011;454;53.254;10.400;2022-11-15T06:13:40;7.95;;;6.32;;
934;SDS011;454;53.254;10.400;2022-11-15T06:16:07;9.50;;;5.90;;
934;SDS011;454;53.254;10.400;2022-11-15T06:18:34;17.95;;;8.15;;
934;SDS011;454;53.254;10.400;2022-11-15T06:21:02;8.20;;;6.88;;
934;SDS011;454;53.254;10.400;2022-11-15T06:23:31;9.20;;;5.97;;
934;SDS011;454;53.254;10.400;2022-11-15T06:25:58;7.40;;;6.35;;
934;SDS011;454;53.254;10.400;2022-11-15T06:28:28;12.77;;;7.18;;
934;SDS011;454;53.254;10.400;2022-11-15T06:30:55;9.63;;;6.50;;
934;SDS011;454;53.254;10.400;2022-11-15T06:33:22;8.70;;;6.32;;
934;SDS011;454;53.254;10.400;2022-11-15T06:35:49;11.85;;;4.85;;
934;SDS011;454;53.254;10.400;2022-11-15T06:38:16;8.23;;;6.88;;
934;SDS011;454;53.254;10.400;2022-11-15T06:40:42;6.30;;;5.57;;
934;SDS011;454;53.254;10.400;2022-11-15T06:43:09;7.95;;;5.75;;
934;SDS011;454;53.254;10.400;2022-11-15T06:45:37;7.55;;;5.30;;
934;SDS011;454;53.254;10.400;2022-11-15T06:48:04;10.23;;;6.32;;
934;SDS011;454;53.254;10.400;2022-11-15T06:50:31;5.70;;;5.10;;
934;SDS011;454;53.254;10.400;2022-11-15T06:53:00;14.63;;;5.13;;
934;SDS011;454;53.254;10.400;2022-11-15T06:55:27;10.85;;;8.75;;
934;SDS011;454;53.254;10.400;2022-11-15T06:57:54;9.73;;;5.35;;
934;SDS011;454;53.254;10.400;2022-11-15T07:00:21;10.00;;;8.50;;
934;SDS011;454;53.254;10.400;2022-11-15T07:02:49;7.13;;;5.75;;
934;SDS011;454;53.254;10.400;2022-11-15T07:05:16;8.45;;;7.07;;
934;SDS011;454;53.254;10.400;2022-11-15T07:07:43;13.63;;;5.70;;
934;SDS011;454;53.254;10.400;2022-11-15T07:10:16;9.25;;;5.55;;
934;SDS011;454;53.254;10.400;2022-11-15T07:12:45;10.45;;;8.10;;
934;SDS011;454;53.254;10.400;2022-11-15T07:15:13;13.00;;;5.55;;
934;SDS011;454;53.254;10.400;2022-11-15T07:17:39;6.97;;;5.50;;
934;SDS011;454;53.254;10.400;2022-11-15T07:20:08;9.95;;;8.52;;
934;SDS011;454;53.254;10.400;2022-11-15T07:22:35;8.13;;;6.55;;
934;SDS011;454;53.254;10.400;2022-11-15T07:25:02;11.80;;;8.07;;
934;SDS011;454;53.254;10.400;2022-11-15T07:27:29;8.35;;;6.00;;
934;SDS011;454;53.254;10.400;2022-11-15T07:29:56;12.52;;;9.77;;
934;SDS011;454;53.254;10.400;2022-11-15T07:32:22;4.38;;;4.07;;
934;SDS011;454;53.254;10.400;2022-11-15T07:34:49;9.48;;;7.10;;
934;SDS011;454;53.254;10.400;2022-11-15T07:37:17;9.40;;;6.75;;
934;SDS011;454;53.254;10.400;2022-11-15T07:39:44;10.88;;;7.57;;
934;SDS011;454;53.254;10.400;2022-11-15T07:42:10;10.57;;;7.35;;
934;SDS011;454;53.254;10.400;2022-11-15T07:44:55;6.85;;;6.28;;
934;SDS011;454;53.254;10.400;2022-11-15T07:47:21;13.68;;;7.38;;
934;SDS011;454;53.254;10.400;2022-11-15T07:49:48;9.70;;;8.20;;
934;SDS011;454;53.254;10.400;2022-11-15T07:52:15;9.23;;;6.28;;
934;SDS011;454;53.254;10.400;2022-11-15T07:54:43;6.30;;;5.78;;
934;SDS011;454;53.254;10.400;2022-11-15T07:57:09;12.70;;;7.93;;
934;SDS011;454;53.254;10.400;2022-11-15T07:59:36;7.43;;;5.05;;
934;SDS011;454;53.254;10.400;2022-11-15T08:02:03;12.00;;;8.02;;
934;SDS011;454;53.254;10.400;2022-11-15T08:04:29;9.25;;;5.90;;
934;SDS011;454;53.254;10.400;2022-11-15T08:06:56;8.57;;;7.32;;
934;SDS011;454;53.254;10.400;2022-11-15T08:09:23;9.05;;;6.32;;
934;SDS011;454;53.254;10.400;2022-11-15T08:11:51;12.27;;;5.75;;
934;SDS011;454;53.254;10.400;2022-11-15T08:14:18;8.07;;;7.07;;
934;SDS011;454;53.254;10.400;2022-11-15T08:16:46;9.57;;;6.80;;
934;SDS011;454;53.254;10.400;2022-11-15T08:19:13;12.55;;;9.10;;
934;SDS011;454;53.254;10.400;2022-11-15T08:21:40;9.07;;;6.60;;
934;SDS011;454;53.254;10.400;2022-11-15T08:24:08;8.10;;;6.10;;
934;SDS011;454;53.254;10.400;2022-11-15T08:26:36;11.40;;;6.03;;
934;SDS011;454;53.254;10.400;2022-11-15T08:29:05;7.60;;;6.70;;
934;SDS011;454;53.254;10.400;2022-11-15T08:31:33;5.95;;;5.32;;
934;SDS011;454;53.254;10.400;2022-11-15T08:34:01;11.95;;;7.95;;
934;SDS011;454;53.254;10.400;2022-11-15T08:36:28;11.43;;;9.00;;
934;SDS011;454;53.254;10.400;2022-11-15T08:38:54;11.57;;;6.32;;
934;SDS011;454;53.254;10.400;2022-11-15T08:41:23;7.72;;;5.05;;
934;SDS011;454;53.254;10.400;2022-11-15T08:43:52;11.95;;;7.30;;
934;SDS011;454;53.254;10.400;2022-11-15T08:46:20;5.30;;;4.13;;
934;SDS011;454;53.254;10.400;2022-11-15T08:48:47;8.32;;;5.97;;
934;SDS011;454;53.254;10.400;2022-11-15T08:51:14;7.78;;;6.78;;
934;SDS011;454;53.254;10.400;2022-11-15T08:53:41;10.48;;;6.20;;
934;SDS011;454;53.254;10.400;2022-11-15T08:56:09;7.45;;;6.68;;
934;SDS011;454;53.254;10.400;2022-11-15T08:58:37;8.73;;;5.72;;
934;SDS011;454;53.254;10.400;2022-11-15T09:01:04;7.90;;;7.05;;
934;SDS011;454;53.254;10.400;2022-11-15T09:03:32;7.32;;;5.60;;
934;SDS011;454;53.254;10.400;2022-11-15T09:06:00;7.85;;;4.57;;
934;SDS011;454;53.254;10.400;2022-11-15T09:08:29;5.95;;;5.55;;
934;SDS011;454;53.254;10.400;2022-11-15T09:10:56;7.82;;;6.65;;
934;SDS011;454;53.254;10.400;2022-11-15T09:13:23;15.38;;;8.40;;
934;SDS011;454;53.254;10.400;2022-11-15T09:15:49;9.57;;;4.97;;
934;SDS011;454;53.254;10.400;2022-11-15T09:18:16;8.68;;;5.97;;
934;SDS011;454;53.254;10.400;2022-11-15T09:20:44;6.72;;;6.05;;
934;SDS011;454;53.254;10.400;2022-11-15T09:23:11;4.80;;;4.47;;
934;SDS011;454;53.254;10.400;2022-11-15T09:25:37;7.40;;;6.40;;
934;SDS011;454;53.254;10.400;2022-11-15T09:28:05;9.25;;;7.78;;
934;SDS011;454;53.254;10.400;2022-11-15T09:30:32;9.20;;;6.03;;
934;SDS011;454;53.254;10.400;2022-11-15T09:33:05;10.80;;;7.80;;
934;SDS011;454;53.254;10.400;2022-11-15T09:35:32;9.82;;;6.45;;
934;SDS011;454;53.254;10.400;2022-11-15T09:38:01;11.07;;;5.03;;
934;SDS011;454;53.254;10.400;2022-11-15T09:40:27;10.00;;;7.15;;
934;SDS011;454;53.254;10.400;2022-11-15T09:43:03;9.48;;;6.85;;
934;SDS011;454;53.254;10.400;2022-11-15T09:45:41;8.57;;;6.68;;
934;SDS011;454;53.254;10.400;2022-11-15T09:48:23;10.70;;;6.47;;
934;SDS011;454;53.254;10.400;2022-11-15T09:51:08;9.90;;;5.35;;
934;SDS011;454;53.254;10.400;2022-11-15T09:53:47;5.68;;;4.93;;
934;SDS011;454;53.254;10.400;2022-11-15T09:56:22;4.80;;;4.30;;
934;SDS011;454;53.254;10.400;2022-11-15T09:58:52;7.10;;;5.28;;
934;SDS011;454;53.254;10.400;2022-11-15T10:04:09;8.27;;;5.95;;
934;SDS011;454;53.254;10.400;2022-11-15T10:06:38;7.10;;;5.60;;
934;SDS011;454;53.254;10.400;2022-11-15T10:09:13;5.72;;;4.80;;
934;SDS011;454;53.254;10.400;2022-11-15T10:11:42;5.13;;;4.68;;
934;SDS011;454;53.254;10.400;2022-11-15T10:14:10;5.95;;;4.45;;
934;SDS011;454;53.254;10.400;2022-11-15T10:19:47;4.93;;;4.53;;
934;SDS011;454;53.254;10.400;2022-11-15T10:22:24;4.80;;;3.90;;
934;SDS011;454;53.254;10.400;2022-11-15T10:25:00;6.15;;;4.32;;
934;SDS011;454;53.254;10.400;2022-11-15T10:27:38;5.43;;;4.27;;
934;SDS011;454;53.254;10.400;2022-11-15T10:30:09;7.07;;;4.15;;
934;SDS011;454;53.254;10.400;2022-11-15T10:32:39;3.67;;;3.37;;
934;SDS011;454;53.254;10.400;2022-11-15T10:35:15;5.07;;;4.50;;
934;SDS011;454;53.254;10.400;2022-11-15T10:37:44;3.60;;;2.90;;
934;SDS011;454;53.254;10.400;2022-11-15T10:40:16;4.87;;;3.50;;
934;SDS011;454;53.254;10.400;2022-11-15T10:42:45;6.77;;;6.17;;
934;SDS011;454;53.254;10.400;2022-11-15T10:45:22;2.93;;;2.73;;
934;SDS011;454;53.254;10.400;2022-11-15T10:47:51;4.77;;;3.60;;
934;SDS011;454;53.254;10.400;2022-11-15T10:50:28;3.80;;;3.50;;
934;SDS011;454;53.254;10.400;2022-11-15T10:52:56;7.57;;;3.43;;
934;SDS011;454;53.254;10.400;2022-11-15T10:55:27;4.43;;;3.00;;
934;SDS011;454;53.254;10.400;2022-11-15T10:57:58;5.43;;;4.93;;
934;SDS011;454;53.254;10.400;2022-11-15T11:00:31;4.10;;;3.13;;
934;SDS011;454;53.254;10.400;2022-11-15T11:03:01;3.73;;;3.43;;
934;SDS011;454;53.254;10.400;2022-11-15T11:05:31;4.77;;;4.10;;
934;SDS011;454;53.254;10.400;2022-11-15T11:08:00;5.73;;;4.00;;
934;SDS011;454;53.254;10.400;2022-11-15T11:10:30;9.47;;;3.70;;
934;SDS011;454;53.254;10.400;2022-11-15T11:13:11;4.00;;;3.70;;
934;SDS011;454;53.254;10.400;2022-11-15T11:15:39;4.53;;;4.13;;
934;SDS011;454;53.254;10.400;2022-11-15T11:18:10;6.13;;;3.93;;
934;SDS011;454;53.254;10.400;2022-11-15T11:20:47;4.27;;;3.70;;
934;SDS011;454;53.254;10.400;2022-11-15T11:23:23;4.63;;;4.10;;
934;SDS011;454;53.254;10.400;2022-11-15T11:26:11;3.17;;;3.07;;
934;SDS011;454;53.254;10.400;2022-11-15T11:28:51;4.33;;;3.83;;
934;SDS011;454;53.254;10.400;2022-11-15T11:31:28;3.57;;;3.23;;
934;SDS011;454;53.254;10.400;2022-11-15T11:34:02;3.93;;;3.70;;
934;SDS011;454;53.254;10.400;2022-11-15T11:36:39;3.30;;;3.00;;
934;SDS011;454;53.254;10.400;2022-11-15T11:39:16;2.87;;;2.60;;
934;SDS011;454;53.254;10.400;2022-11-15T11:41:55;2.60;;;2.40;;
934;SDS011;454;53.254;10.400;2022-11-15T11:44:30;3.40;;;3.17;;
934;SDS011;454;53.254;10.400;2022-11-15T11:47:00;2.00;;;1.93;;
934;SDS011;454;53.254;10.400;2022-11-15T11:49:30;3.23;;;3.10;;
934;SDS011;454;53.254;10.400;2022-11-15T11:52:04;2.97;;;2.77;;
934;SDS011;454;53.254;10.400;2022-11-15T11:54:38;2.50;;;2.30;;
934;SDS011;454;53.254;10.400;2022-11-15T11:57:13;13.93;;;3.50;;
934;SDS011;454;53.254;10.400;2022-11-15T11:59:48;2.60;;;2.50;;
934;SDS011;454;53.254;10.400;2022-11-15T12:02:20;3.53;;;3.23;;
934;SDS011;454;53.254;10.400;2022-11-15T12:04:55;3.23;;;2.93;;
934;SDS011;454;53.254;10.400;2022-11-15T12:07:29;3.30;;;3.20;;
934;SDS011;454;53.254;10.400;2022-11-15T12:10:01;2.57;;;2.37;;
934;SDS011;454;53.254;10.400;2022-11-15T12:12:35;2.97;;;2.77;;
934;SDS011;454;53.254;10.400;2022-11-15T12:15:10;3.23;;;2.93;;
934;SDS011;454;53.254;10.400;2022-11-15T12:17:42;4.40;;;3.67;;
934;SDS011;454;53.254;10.400;2022-11-15T12:20:14;2.77;;;2.50;;
934;SDS011;454;53.254;10.400;2022-11-15T12:22:42;3.50;;;2.67;;
934;SDS011;454;53.254;10.400;2022-11-15T12:25:14;2.80;;;2.57;;
934;SDS011;454;53.254;10.400;2022-11-15T12:27:46;4.23;;;3.77;;
934;SDS011;454;53.254;10.400;2022-11-15T12:30:17;6.27;;;3.47;;
934;SDS011;454;53.254;10.400;2022-11-15T12:32:50;2.60;;;2.50;;
934;SDS011;454;53.254;10.400;2022-11-15T12:35:27;10.03;;;4.03;;
934;SDS011;454;53.254;10.400;2022-11-15T12:37:56;5.93;;;3.50;;
934;SDS011;454;53.254;10.400;2022-11-15T12:40:33;2.70;;;2.50;;
934;SDS011;454;53.254;10.400;2022-11-15T12:46:03;4.27;;;3.70;;
934;SDS011;454;53.254;10.400;2022-11-15T13:03:17;3.07;;;2.87;;
934;SDS011;454;53.254;10.400;2022-11-15T13:06:04;4.43;;;4.03;;
934;SDS011;454;53.254;10.400;2022-11-15T13:08:43;5.00;;;2.77;;
934;SDS011;454;53.254;10.400;2022-11-15T13:17:12;5.93;;;3.77;;
934;SDS011;454;53.254;10.400;2022-11-15T13:19:53;3.17;;;2.90;;
934;SDS011;454;53.254;10.400;2022-11-15T13:22:25;4.00;;;3.70;;
934;SDS011;454;53.254;10.400;2022-11-15T13:25:18;2.30;;;2.20;;
934;SDS011;454;53.254;10.400;2022-11-15T13:27:48;2.50;;;2.17;;
934;SDS011;454;53.254;10.400;2022-11-15T13:30:19;6.50;;;3.00;;
934;SDS011;454;53.254;10.400;2022-11-15T13:32:47;2.67;;;2.47;;
934;SDS011;454;53.254;10.400;2022-11-15T13:35:20;2.67;;;2.47;;
934;SDS011;454;53.254;10.400;2022-11-15T13:37:48;4.20;;;3.40;;
934;SDS011;454;53.254;10.400;2022-11-15T13:40:19;5.13;;;4.07;;
934;SDS011;454;53.254;10.400;2022-11-15T13:42:52;3.30;;;3.10;;
934;SDS011;454;53.254;10.400;2022-11-15T13:45:19;3.03;;;2.83;;
934;SDS011;454;53.254;10.400;2022-11-15T13:47:50;3.23;;;3.13;;
934;SDS011;454;53.254;10.400;2022-11-15T13:50:19;7.70;;;2.60;;
934;SDS011;454;53.254;10.400;2022-11-15T13:52:48;3.27;;;3.07;;
934;SDS011;454;53.254;10.400;2022-11-15T13:55:16;3.77;;;3.43;;
934;SDS011;454;53.254;10.400;2022-11-15T13:57:45;2.73;;;2.10;;
934;SDS011;454;53.254;10.400;2022-11-15T14:00:28;4.57;;;4.17;;
934;SDS011;454;53.254;10.400;2022-11-15T14:03:12;4.40;;;3.60;;
934;SDS011;454;53.254;10.400;2022-11-15T14:05:44;4.07;;;3.60;;
934;SDS011;454;53.254;10.400;2022-11-15T14:08:26;4.63;;;3.73;;
934;SDS011;454;53.254;10.400;2022-11-15T14:11:09;4.70;;;2.33;;
934;SDS011;454;53.254;10.400;2022-11-15T14:13:39;4.20;;;3.57;;
934;SDS011;454;53.254;10.400;2022-11-15T14:16:13;3.83;;;2.63;;
934;SDS011;454;53.254;10.400;2022-11-15T14:18:43;3.23;;;2.83;;
934;SDS011;454;53.254;10.400;2022-11-15T14:21:12;7.23;;;3.90;;
934;SDS011;454;53.254;10.400;2022-11-15T14:23:40;4.83;;;3.00;;
934;SDS011;454;53.254;10.400;2022-11-15T14:26:10;6.37;;;4.13;;
934;SDS011;454;53.254;10.400;2022-11-15T14:28:52;4.70;;;3.07;;
934;SDS011;454;53.254;10.400;2022-11-15T14:31:19;2.83;;;2.60;;
934;SDS011;454;53.254;10.400;2022-11-15T14:33:46;3.47;;;3.17;;
934;SDS011;454;53.254;10.400;2022-11-15T14:36:15;3.47;;;3.17;;
934;SDS011;454;53.254;10.400;2022-11-15T14:38:43;3.23;;;2.93;;
934;SDS011;454;53.254;10.400;2022-11-15T14:41:16;2.63;;;2.33;;
934;SDS011;454;53.254;10.400;2022-11-15T14:43:44;4.75;;;3.47;;
934;SDS011;454;53.254;10.400;2022-11-15T14:46:11;1.80;;;1.73;;
934;SDS011;454;53.254;10.400;2022-11-15T14:48:37;3.50;;;3.10;;
934;SDS011;454;53.254;10.400;2022-11-15T14:51:08;3.00;;;2.80;;
934;SDS011;454;53.254;10.400;2022-11-15T14:53:39;2.92;;;2.53;;
934;SDS011;454;53.254;10.400;2022-11-15T14:56:07;2.00;;;2.00;;
934;SDS011;454;53.254;10.400;2022-11-15T14:58:34;2.93;;;2.73;;
934;SDS011;454;53.254;10.400;2022-11-15T15:01:01;4.10;;;3.80;;
934;SDS011;454;53.254;10.400;2022-11-15T15:03:28;4.47;;;4.07;;
934;SDS011;454;53.254;10.400;2022-11-15T15:05:55;2.97;;;2.65;;
934;SDS011;454;53.254;10.400;2022-11-15T15:08:22;2.80;;;2.50;;
934;SDS011;454;53.254;10.400;2022-11-15T15:10:50;3.20;;;3.00;;
934;SDS011;454;53.254;10.400;2022-11-15T15:13:18;4.97;;;2.77;;
934;SDS011;454;53.254;10.400;2022-11-15T15:15:45;4.38;;;3.58;;
934;SDS011;454;53.254;10.400;2022-11-15T15:18:13;3.40;;;3.10;;
934;SDS011;454;53.254;10.400;2022-11-15T15:20:40;4.65;;;3.42;;
934;SDS011;454;53.254;10.400;2022-11-15T15:23:14;1.65;;;1.55;;
934;SDS011;454;53.254;10.400;2022-11-15T15:25:43;3.58;;;3.25;;
934;SDS011;454;53.254;10.400;2022-11-15T15:28:11;5.35;;;3.88;;
934;SDS011;454;53.254;10.400;2022-11-15T15:30:38;5.03;;;3.10;;
934;SDS011;454;53.254;10.400;2022-11-15T15:33:05;7.30;;;2.88;;
934;SDS011;454;53.254;10.400;2022-11-15T15:35:33;3.17;;;3.08;;
934;SDS011;454;53.254;10.400;2022-11-15T15:38:00;4.60;;;3.20;;
934;SDS011;454;53.254;10.400;2022-11-15T15:40:28;4.28;;;3.78;;
934;SDS011;454;53.254;10.400;2022-11-15T15:42:57;2.15;;;2.00;;
934;SDS011;454;53.254;10.400;2022-11-15T15:45:25;3.00;;;2.80;;
934;SDS011;454;53.254;10.400;2022-11-15T15:47:53;3.38;;;3.08;;
934;SDS011;454;53.254;10.400;2022-11-15T15:50:21;2.67;;;2.38;;
934;SDS011;454;53.254;10.400;2022-11-15T15:52:50;3.78;;;3.42;;
934;SDS011;454;53.254;10.400;2022-11-15T15:55:17;4.15;;;3.75;;
934;SDS011;454;53.254;10.400;2022-11-15T15:57:44;3.83;;;3.58;;
934;SDS011;454;53.254;10.400;2022-11-15T16:00:12;4.72;;;4.22;;
934;SDS011;454;53.254;10.400;2022-11-15T16:02:40;3.78;;;3.45;;
934;SDS011;454;53.254;10.400;2022-11-15T16:05:08;5.40;;;3.90;;
934;SDS011;454;53.254;10.400;2022-11-15T16:07:35;4.47;;;4.15;;
934;SDS011;454;53.254;10.400;2022-11-15T16:10:03;4.40;;;4.03;;
934;SDS011;454;53.254;10.400;2022-11-15T16:12:43;3.75;;;3.13;;
934;SDS011;454;53.254;10.400;2022-11-15T16:15:10;3.90;;;3.65;;
934;SDS011;454;53.254;10.400;2022-11-15T16:17:38;4.03;;;3.35;;
934;SDS011;454;53.254;10.400;2022-11-15T16:20:11;5.95;;;3.45;;
934;SDS011;454;53.254;10.400;2022-11-15T16:22:48;3.42;;;3.15;;
934;SDS011;454;53.254;10.400;2022-11-15T16:25:15;4.57;;;3.13;;
934;SDS011;454;53.254;10.400;2022-11-15T16:27:41;3.47;;;3.20;;
934;SDS011;454;53.254;10.400;2022-11-15T16:30:10;5.80;;;3.13;;
934;SDS011;454;53.254;10.400;2022-11-15T16:32:41;6.38;;;4.40;;
934;SDS011;454;53.254;10.400;2022-11-15T16:35:09;3.45;;;3.33;;
934;SDS011;454;53.254;10.400;2022-11-15T16:37:37;5.53;;;4.25;;
934;SDS011;454;53.254;10.400;2022-11-15T16:40:07;3.50;;;3.25;;
934;SDS011;454;53.254;10.400;2022-11-15T16:42:43;4.13;;;3.72;;
934;SDS011;454;53.254;10.400;2022-11-15T16:45:10;3.22;;;2.80;;
934;SDS011;454;53.254;10.400;2022-11-15T16:47:38;4.13;;;3.20;;
934;SDS011;454;53.254;10.400;2022-11-15T16:50:07;3.97;;;3.20;;
934;SDS011;454;53.254;10.400;2022-11-15T16:52:40;3.30;;;3.10;;
934;SDS011;454;53.254;10.400;2022-11-15T16:55:07;11.80;;;3.13;;
934;SDS011;454;53.254;10.400;2022-11-15T16:57:34;4.47;;;3.30;;
934;SDS011;454;53.254;10.400;2022-11-15T17:00:02;4.40;;;4.10;;
934;SDS011;454;53.254;10.400;2022-11-15T17:02:30;11.88;;;4.88;;
934;SDS011;454;53.254;10.400;2022-11-15T17:04:57;4.75;;;3.65;;
934;SDS011;454;53.254;10.400;2022-11-15T17:07:25;5.03;;;4.35;;
934;SDS011;454;53.254;10.400;2022-11-15T17:09:52;4.10;;;3.78;;
934;SDS011;454;53.254;10.400;2022-11-15T17:12:19;3.88;;;3.05;;
934;SDS011;454;53.254;10.400;2022-11-15T17:14:45;4.03;;;3.33;;
934;SDS011;454;53.254;10.400;2022-11-15T17:17:12;6.53;;;5.00;;
934;SDS011;454;53.254;10.400;2022-11-15T17:19:39;2.72;;;2.50;;
934;SDS011;454;53.254;10.400;2022-11-15T17:22:05;2.60;;;2.40;;
934;SDS011;454;53.254;10.400;2022-11-15T17:24:33;4.97;;;3.85;;
934;SDS011;454;53.254;10.400;2022-11-15T17:27:00;3.40;;;3.17;;
934;SDS011;454;53.254;10.400;2022-11-15T17:29:27;4.82;;;3.88;;
934;SDS011;454;53.254;10.400;2022-11-15T17:31:54;4.88;;;4.47;;
934;SDS011;454;53.254;10.400;2022-11-15T17:34:21;4.88;;;4.55;;
934;SDS011;454;53.254;10.400;2022-11-15T17:36:47;7.75;;;3.63;;
934;SDS011;454;53.254;10.400;2022-11-15T17:39:14;6.18;;;3.45;;
934;SDS011;454;53.254;10.400;2022-11-15T17:41:44;4.43;;;3.70;;
934;SDS011;454;53.254;10.400;2022-11-15T17:44:10;4.20;;;3.80;;
934;SDS011;454;53.254;10.400;2022-11-15T17:46:37;6.20;;;4.20;;
934;SDS011;454;53.254;10.400;2022-11-15T17:49:04;4.15;;;3.70;;
934;SDS011;454;53.254;10.400;2022-11-15T17:51:32;4.30;;;4.00;;
934;SDS011;454;53.254;10.400;2022-11-15T17:53:58;5.05;;;4.50;;
934;SDS011;454;53.254;10.400;2022-11-15T17:56:26;4.13;;;3.72;;
934;SDS011;454;53.254;10.400;2022-11-15T17:58:57;2.90;;;2.70;;
934;SDS011;454;53.254;10.400;2022-11-15T18:01:26;3.58;;;3.28;;
934;SDS011;454;53.254;10.400;2022-11-15T18:03:54;5.75;;;3.05;;
934;SDS011;454;53.254;10.400;2022-11-15T18:06:22;3.05;;;2.92;;
934;SDS011;454;53.254;10.400;2022-11-15T18:08:50;3.38;;;3.05;;
934;SDS011;454;53.254;10.400;2022-11-15T18:11:18;4.72;;;3.75;;
934;SDS011;454;53.254;10.400;2022-11-15T18:13:47;3.67;;;3.47;;
934;SDS011;454;53.254;10.400;2022-11-15T18:16:17;5.78;;;3.95;;
934;SDS011;454;53.254;10.400;2022-11-15T18:18:45;4.72;;;4.43;;
934;SDS011;454;53.254;10.400;2022-11-15T18:21:14;4.13;;;3.83;;
934;SDS011;454;53.254;10.400;2022-11-15T18:23:42;4.50;;;3.00;;
934;SDS011;454;53.254;10.400;2022-11-15T18:26:10;2.65;;;2.55;;
934;SDS011;454;53.254;10.400;2022-11-15T18:28:38;3.55;;;3.22;;
934;SDS011;454;53.254;10.400;2022-11-15T18:31:11;3.17;;;2.22;;
934;SDS011;454;53.254;10.400;2022-11-15T18:33:41;5.50;;;4.68;;
934;SDS011;454;53.254;10.400;2022-11-15T18:36:09;4.97;;;4.50;;
934;SDS011;454;53.254;10.400;2022-11-15T18:38:38;7.10;;;4.43;;
934;SDS011;454;53.254;10.400;2022-11-15T18:41:05;2.35;;;2.08;;
934;SDS011;454;53.254;10.400;2022-11-15T18:43:33;5.68;;;3.85;;
934;SDS011;454;53.254;10.400;2022-11-15T18:46:00;2.85;;;2.65;;
934;SDS011;454;53.254;10.400;2022-11-15T18:48:28;3.55;;;2.88;;
934;SDS011;454;53.254;10.400;2022-11-15T18:51:00;4.00;;;3.38;;
934;SDS011;454;53.254;10.400;2022-11-15T18:53:27;6.00;;;2.97;;
934;SDS011;454;53.254;10.400;2022-11-15T18:55:54;4.70;;;3.53;;
934;SDS011;454;53.254;10.400;2022-11-15T18:58:27;4.45;;;4.05;;
934;SDS011;454;53.254;10.400;2022-11-15T19:00:58;3.72;;;3.35;;
934;SDS011;454;53.254;10.400;2022-11-15T19:03:25;4.15;;;3.83;;
934;SDS011;454;53.254;10.400;2022-11-15T19:06:00;4.00;;;3.78;;
934;SDS011;454;53.254;10.400;2022-11-15T19:08:27;14.13;;;3.75;;
934;SDS011;454;53.254;10.400;2022-11-15T19:10:54;4.22;;;3.72;;
934;SDS011;454;53.254;10.400;2022-11-15T19:13:21;4.00;;;3.13;;
934;SDS011;454;53.254;10.400;2022-11-15T19:15:48;4.10;;;3.65;;
934;SDS011;454;53.254;10.400;2022-11-15T19:18:22;2.88;;;2.67;;
934;SDS011;454;53.254;10.400;2022-11-15T19:20:49;3.95;;;3.75;;
934;SDS011;454;53.254;10.400;2022-11-15T19:23:17;3.97;;;3.63;;
934;SDS011;454;53.254;10.400;2022-11-15T19:25:51;3.67;;;3.38;;
934;SDS011;454;53.254;10.400;2022-11-15T19:28:19;4.60;;;2.85;;
934;SDS011;454;53.254;10.400;2022-11-15T19:30:45;4.18;;;3.10;;
934;SDS011;454;53.254;10.400;2022-11-15T19:33:12;4.80;;;3.08;;
934;SDS011;454;53.254;10.400;2022-11-15T19:35:39;3.40;;;3.10;;
934;SDS011;454;53.254;10.400;2022-11-15T19:38:05;3.85;;;3.40;;
934;SDS011;454;53.254;10.400;2022-11-15T19:40:33;3.50;;;3.30;;
934;SDS011;454;53.254;10.400;2022-11-15T19:43:00;4.68;;;3.97;;
934;SDS011;454;53.254;10.400;2022-11-15T19:45:27;3.77;;;2.67;;
934;SDS011;454;53.254;10.400;2022-11-15T19:47:54;3.93;;;2.60;;
934;SDS011;454;53.254;10.400;2022-11-15T19:50:22;6.45;;;4.32;;
934;SDS011;454;53.254;10.400;2022-11-15T19:52:48;5.50;;;4.43;;
934;SDS011;454;53.254;10.400;2022-11-15T19:55:15;4.95;;;4.43;;
934;SDS011;454;53.254;10.400;2022-11-15T19:57:43;4.78;;;3.25;;
934;SDS011;454;53.254;10.400;2022-11-15T20:00:10;3.47;;;3.17;;
934;SDS011;454;53.254;10.400;2022-11-15T20:02:37;4.45;;;4.15;;
934;SDS011;454;53.254;10.400;2022-11-15T20:05:04;3.85;;;3.28;;
934;SDS011;454;53.254;10.400;2022-11-15T20:07:30;4.50;;;4.28;;
934;SDS011;454;53.254;10.400;2022-11-15T20:09:57;6.05;;;4.60;;
934;SDS011;454;53.254;10.400;2022-11-15T20:12:24;4.85;;;3.75;;
934;SDS011;454;53.254;10.400;2022-11-15T20:14:52;3.70;;;3.40;;
934;SDS011;454;53.254;10.400;2022-11-15T20:17:19;4.03;;;3.40;;
934;SDS011;454;53.254;10.400;2022-11-15T20:19:46;3.90;;;3.08;;
934;SDS011;454;53.254;10.400;2022-11-15T20:22:12;9.38;;;4.30;;
934;SDS011;454;53.254;10.400;2022-11-15T20:24:39;4.68;;;4.28;;
934;SDS011;454;53.254;10.400;2022-11-15T20:27:06;4.53;;;3.30;;
934;SDS011;454;53.254;10.400;2022-11-15T20:29:32;5.60;;;3.33;;
934;SDS011;454;53.254;10.400;2022-11-15T20:32:00;4.38;;;4.05;;
934;SDS011;454;53.254;10.400;2022-11-15T20:34:27;4.32;;;4.03;;
934;SDS011;454;53.254;10.400;2022-11-15T20:36:54;5.07;;;4.68;;
934;SDS011;454;53.254;10.400;2022-11-15T20:39:21;7.18;;;6.47;;
934;SDS011;454;53.254;10.400;2022-11-15T20:41:48;5.15;;;4.72;;
934;SDS011;454;53.254;10.400;2022-11-15T20:44:14;5.25;;;3.33;;
934;SDS011;454;53.254;10.400;2022-11-15T20:46:41;3.65;;;3.15;;
934;SDS011;454;53.254;10.400;2022-11-15T20:49:09;3.75;;;3.55;;
934;SDS011;454;53.254;10.400;2022-11-15T20:51:36;5.18;;;3.53;;
934;SDS011;454;53.254;10.400;2022-11-15T20:54:02;5.55;;;4.43;;
934;SDS011;454;53.254;10.400;2022-11-15T20:56:30;5.38;;;4.13;;
934;SDS011;454;53.254;10.400;2022-11-15T20:58:56;3.47;;;3.13;;
934;SDS011;454;53.254;10.400;2022-11-15T21:01:23;3.92;;;3.00;;
934;SDS011;454;53.254;10.400;2022-11-15T21:03:50;4.65;;;4.28;;
934;SDS011;454;53.254;10.400;2022-11-15T21:06:19;4.68;;;3.75;;
934;SDS011;454;53.254;10.400;2022-11-15T21:08:47;5.25;;;3.95;;
934;SDS011;454;53.254;10.400;2022-11-15T21:11:32;4.18;;;3.78;;